Terminal Aerodrome Forecast
Issued by NWS Sterling, VA

Current Version | Previous Version | Graphics & Text | Print | Product List | Glossary On
Versions: 1 2 3 4 5 6 7 8 9 10 11 12 13 14
000
FTUS41 KLWX 241739
TAFMRB
TAF
KMRB 241739Z 2418/2518 21006KT P6SM SCT050
     FM250200 15004KT P6SM VCTS BKN050CB
     FM250600 19003KT P6SM BKN090
     FM250800 00000KT P6SM BKN090
     FM251300 VRB03KT P6SM SCT070
     FM251600 26007KT P6SM SCT060=

USA.gov is the U.S. government's official web portal to all federal, state and local government web resources and services.